Detall de PIREP

Printer-friendly versionPDF version

[2012/12/01 16:33:00]
Flight IATA:CT0001
Pilot Number:044
Company ICAO:CAT
Aircraft Type:BE20/A
PAX:4
Departing Airport: LEMH
Destination Airport: LERS
Alternate Airport:LEBL
Online: VATSIM
Route:LUNIK A25 BCN
Flight Level:F180
No Slew and time accel
No pause
Crash detect
Detect pilot in Cockpit between each 30 and 45 minutes
16:33 Zero fuel Weight: 9378 Lbs, Fuel Weight: 1272 Lbs
16:33 VATSIM:LEMH 011600Z 01018KT 9999 FEW028 10/04 Q1008
16:33 VATSIM:LERS 011600Z 27008KT CAVOK 08/M04 Q1011
16:33 VOICE CATALONIAN
16:34 IFR CLASSIC
16:34 Parking Brakes off
16:41 Take-off
16:41 Take off Weight: 10621 Lbs
16:41 Wind: 011º @ 018 Knots Heading: 008º
16:41 POS N39º 51´ 38´´ E004º 13´ 05´´
16:41 Flaps:1 at 131 Knots
16:41 Gear Up: 133 Knots
16:41 Flaps:0 at 134 Knots
16:56 Wind:019º@040 Knots Heading: 319º Ground Speed: 193 Knots Altitude 15997 ft
16:57 TOC
16:57 Fuel Weight: 1050 Lb
17:07 TOD
17:07 Fuel Weight: 923 Lb
17:11 Wind:320º@009 Knots Heading: 297º Ground Speed: 215 Knots Altitude 13530 ft
17:26 Wind:312º@011 Knots Heading: 276º Ground Speed: 176 Knots Altitude 5997 ft
17:36 Flaps:1 at 158 Knots
17:37 Gear Down: 154 Knots
17:38 Flaps:2 at 138 Knots
17:39 TouchDown:Rate -218 ft/min Speed: 110 Knots
17:39 VATSIM:LERS 011730Z VRB02KT 9999 FEW030 05/M03 Q1012
17:39 Land
17:39 Wind:276º@003 Knots
17:39 Heading: 247º
17:39 Flight Duration: 00:58
17:39 Landing Weight: 10126 Lbs
17:39 POS N41º 08´ 38´´ E001º 09´ 20´´
17:42 Parking brakes on
17:42 Block to Block Duration: 01:08
17:42 Final Fuel: 736 Lbls
17:42 Spent Fuel: 535 Lbls
17:42 Flight Length: 185 NM
17:42 TOD Land Length: 95 NM

Exportar CSV

Powered by Drupal - Modified by Danger4k